Time;durP1;ratioP1;P1;durP2;ratioP2;P2;SDS_P1;SDS_P2;PMS_P1;PMS_P2;Temp;Humidity;BMP_temperature;BMP_pressure;BME280_temperature;BME280_humidity;BME280_pressure;Samples;Min_cycle;Max_cycle;Signal;HPM_P1;HPM_P2
2022/04/28 00:01:47;;;;;;;7.28;3.60;;;;;;;;;;4972009;28;20407;-65
2022/04/28 00:04:12;;;;;;;7.18;3.65;;;;;;;;;;4972754;28;20452;-64
2022/04/28 00:06:37;;;;;;;6.95;4.13;;;;;;;;;;4973600;28;20030;-64
2022/04/28 00:09:03;;;;;;;8.15;4.28;;;;;;;;;;4971980;28;20322;-64
2022/04/28 00:11:28;;;;;;;8.55;4.13;;;;;;;;;;4971901;28;20510;-65
2022/04/28 00:13:53;;;;;;;5.47;3.38;;;;;;;;;;4971855;28;20491;-65
2022/04/28 00:16:19;;;;;;;6.20;3.30;;;;;;;;;;4971569;28;20447;-64
2022/04/28 00:18:44;;;;;;;12.23;4.57;;;;;;;;;;4972400;28;20084;-64
2022/04/28 00:21:09;;;;;;;8.48;4.15;;;;;;;;;;4971578;28;20348;-64
2022/04/28 00:23:35;;;;;;;5.45;3.17;;;;;;;;;;4971594;28;20503;-64
2022/04/28 00:26:00;;;;;;;9.18;4.80;;;;;;;;;;4971500;28;20459;-64
2022/04/28 00:28:25;;;;;;;8.63;4.38;;;;;;;;;;4971578;28;20380;-65
2022/04/28 00:30:51;;;;;;;7.85;3.90;;;;;;;;;;4971254;28;20440;-64
2022/04/28 00:33:16;;;;;;;7.97;4.00;;;;;;;;;;4972257;28;20456;-64
2022/04/28 00:35:41;;;;;;;6.45;3.90;;;;;;;;;;4970873;28;20532;-64
2022/04/28 00:38:07;;;;;;;10.10;4.13;;;;;;;;;;4971330;28;20336;-65
2022/04/28 00:40:32;;;;;;;7.13;4.00;;;;;;;;;;4970226;28;20455;-64
2022/04/28 00:43:18;;;;;;;8.05;4.30;;;;;;;;;;4971808;28;20439;-64
2022/04/28 00:45:42;;;;;;;9.18;3.95;;;;;;;;;;4970594;28;20383;-65
2022/04/28 00:50:53;;;;;;;6.10;4.13;;;;;;;;;;4971173;28;20368;-65
2022/04/28 00:53:18;;;;;;;6.95;3.63;;;;;;;;;;4954265;28;20356;-64
2022/04/28 00:55:44;;;;;;;8.55;4.30;;;;;;;;;;4953096;28;20025;-65
2022/04/28 00:58:10;;;;;;;7.18;3.95;;;;;;;;;;4971673;28;20421;-64
2022/04/28 01:00:39;;;;;;;6.43;3.80;;;;;;;;;;4967346;28;20051;-64
2022/04/28 01:03:05;;;;;;;6.45;3.65;;;;;;;;;;4970697;28;20441;-64
2022/04/28 01:05:32;;;;;;;9.55;5.07;;;;;;;;;;4970715;28;20456;-63
2022/04/28 01:07:57;;;;;;;5.75;3.63;;;;;;;;;;4970143;28;20033;-64
2022/04/28 01:10:22;;;;;;;8.32;3.78;;;;;;;;;;4970544;28;20126;-65
2022/04/28 01:12:48;;;;;;;7.75;4.00;;;;;;;;;;4971416;28;20395;-64
2022/04/28 01:15:13;;;;;;;8.38;4.05;;;;;;;;;;4952406;28;20483;-65
2022/04/28 01:17:38;;;;;;;7.68;3.85;;;;;;;;;;4970586;28;20488;-64
2022/04/28 01:20:04;;;;;;;6.93;4.10;;;;;;;;;;4971349;28;20025;-64
2022/04/28 01:22:29;;;;;;;7.90;3.70;;;;;;;;;;4970071;28;20488;-63
2022/04/28 01:24:55;;;;;;;6.88;3.85;;;;;;;;;;4971308;28;20453;-65
2022/04/28 01:27:21;;;;;;;6.00;4.10;;;;;;;;;;4970516;28;20417;-65
2022/04/28 01:29:47;;;;;;;7.57;4.10;;;;;;;;;;4952500;28;20421;-64
2022/04/28 01:32:12;;;;;;;8.73;4.60;;;;;;;;;;4970737;28;20421;-65
2022/04/28 01:34:37;;;;;;;9.02;4.50;;;;;;;;;;4969788;28;20068;-65
2022/04/28 01:37:03;;;;;;;8.65;4.30;;;;;;;;;;4970111;28;20491;-64
2022/04/28 01:39:28;;;;;;;7.25;3.95;;;;;;;;;;4971403;28;20479;-64
2022/04/28 01:41:53;;;;;;;9.52;4.57;;;;;;;;;;4969943;28;20459;-64
2022/04/28 01:44:19;;;;;;;7.43;4.20;;;;;;;;;;4969869;28;20416;-64
2022/04/28 01:46:44;;;;;;;7.25;4.18;;;;;;;;;;4969638;28;20352;-64
2022/04/28 01:49:10;;;;;;;9.55;3.90;;;;;;;;;;4970635;28;20478;-64
2022/04/28 01:57:04;;;;;;;6.45;4.43;;;;;;;;;;4970298;28;20103;-64
2022/04/28 01:59:29;;;;;;;5.50;3.30;;;;;;;;;;4969578;28;20452;-65
2022/04/28 02:01:54;;;;;;;6.50;3.83;;;;;;;;;;4969644;28;20495;-64
2022/04/28 02:04:20;;;;;;;8.18;3.95;;;;;;;;;;4969792;28;20424;-65
2022/04/28 02:06:45;;;;;;;9.45;4.82;;;;;;;;;;4969743;28;20490;-65
2022/04/28 02:09:11;;;;;;;6.95;4.05;;;;;;;;;;4969329;28;20543;-65
2022/04/28 02:11:36;;;;;;;7.50;3.63;;;;;;;;;;4969468;28;20437;-65
2022/04/28 02:14:01;;;;;;;7.80;4.25;;;;;;;;;;4969474;28;20076;-65
2022/04/28 02:16:27;;;;;;;6.18;3.55;;;;;;;;;;4969644;28;20439;-64
2022/04/28 02:18:52;;;;;;;7.15;3.90;;;;;;;;;;4970832;28;20116;-64
2022/04/28 02:21:17;;;;;;;10.55;3.97;;;;;;;;;;4969744;28;20436;-65
2022/04/28 02:23:43;;;;;;;7.68;3.53;;;;;;;;;;4969253;28;20340;-64
2022/04/28 02:26:09;;;;;;;6.50;3.95;;;;;;;;;;4970346;28;20324;-64
2022/04/28 02:28:34;;;;;;;6.35;3.67;;;;;;;;;;4968976;28;20437;-64
2022/04/28 02:30:59;;;;;;;7.88;4.05;;;;;;;;;;4970575;28;20417;-65
2022/04/28 02:33:25;;;;;;;6.65;3.80;;;;;;;;;;4969456;28;20048;-64
2022/04/28 02:35:50;;;;;;;6.72;3.97;;;;;;;;;;4969278;28;20344;-65
2022/04/28 02:38:15;;;;;;;8.10;4.10;;;;;;;;;;4970690;28;20060;-65
2022/04/28 02:40:41;;;;;;;6.35;3.80;;;;;;;;;;4968992;28;20344;-65
2022/04/28 02:43:06;;;;;;;8.32;4.35;;;;;;;;;;4969227;28;20530;-64
2022/04/28 02:45:31;;;;;;;7.80;3.92;;;;;;;;;;4951817;28;20038;-65
2022/04/28 02:47:57;;;;;;;7.70;4.40;;;;;;;;;;4969896;28;20089;-65
2022/04/28 02:50:22;;;;;;;8.23;4.40;;;;;;;;;;4969249;28;20605;-64
2022/04/28 02:52:50;;;;;;;8.07;3.92;;;;;;;;;;4968804;28;20433;-63
2022/04/28 02:55:16;;;;;;;8.27;4.88;;;;;;;;;;4968846;28;20364;-64
2022/04/28 02:57:41;;;;;;;7.32;4.13;;;;;;;;;;4968628;28;20419;-64
2022/04/28 03:00:07;;;;;;;5.45;3.45;;;;;;;;;;4969683;28;20356;-63
2022/04/28 03:02:33;;;;;;;6.57;3.72;;;;;;;;;;4968667;28;20021;-64
2022/04/28 03:04:58;;;;;;;7.75;4.22;;;;;;;;;;4973688;28;20033;-65
2022/04/28 03:12:51;;;;;;;6.43;3.60;;;;;;;;;;4972774;28;20162;-64
2022/04/28 03:15:16;;;;;;;9.48;4.47;;;;;;;;;;4972742;28;20449;-65
2022/04/28 03:17:42;;;;;;;6.43;3.85;;;;;;;;;;4973069;28;20668;-64
2022/04/28 03:20:08;;;;;;;7.68;3.90;;;;;;;;;;4973133;28;20515;-64
2022/04/28 03:22:33;;;;;;;9.75;4.07;;;;;;;;;;4972381;28;20030;-64
2022/04/28 03:24:58;;;;;;;5.68;3.33;;;;;;;;;;4972427;28;20033;-63
2022/04/28 03:27:27;;;;;;;7.40;4.00;;;;;;;;;;4972569;28;20444;-64
2022/04/28 03:29:52;;;;;;;8.60;3.85;;;;;;;;;;4972639;28;20482;-64
2022/04/28 03:32:18;;;;;;;7.85;3.65;;;;;;;;;;4974221;28;20433;-64
2022/04/28 03:34:43;;;;;;;6.93;3.90;;;;;;;;;;4972605;28;20073;-64
2022/04/28 03:37:08;;;;;;;6.60;4.18;;;;;;;;;;4972065;28;20029;-65
2022/04/28 03:39:37;;;;;;;5.93;3.45;;;;;;;;;;4972429;28;20048;-65
2022/04/28 03:42:03;;;;;;;6.87;4.07;;;;;;;;;;4972743;28;20452;-64
2022/04/28 03:44:29;;;;;;;5.60;3.72;;;;;;;;;;4972883;28;20341;-64
2022/04/28 03:46:54;;;;;;;7.68;4.07;;;;;;;;;;4972199;28;20357;-65
2022/04/28 03:49:20;;;;;;;5.63;3.20;;;;;;;;;;4972294;28;20437;-64
2022/04/28 03:51:45;;;;;;;7.07;3.67;;;;;;;;;;4971809;28;20317;-64
2022/04/28 03:54:10;;;;;;;7.57;4.38;;;;;;;;;;4972039;28;20361;-63
2022/04/28 03:56:36;;;;;;;9.15;4.60;;;;;;;;;;4971816;28;20425;-65
2022/04/28 03:59:02;;;;;;;5.70;3.70;;;;;;;;;;4954520;28;20419;-64
2022/04/28 04:01:28;;;;;;;7.55;4.28;;;;;;;;;;4972140;28;20068;-66
2022/04/28 04:03:53;;;;;;;7.13;3.35;;;;;;;;;;4954272;28;20037;-64
2022/04/28 04:06:19;;;;;;;10.95;4.68;;;;;;;;;;4971918;28;20329;-64
2022/04/28 04:08:45;;;;;;;8.50;3.97;;;;;;;;;;4971432;28;20496;-64
2022/04/28 04:11:11;;;;;;;6.40;3.70;;;;;;;;;;4971530;28;20457;-64
2022/04/28 04:13:37;;;;;;;7.97;3.50;;;;;;;;;;4971456;28;20333;-64
2022/04/28 04:16:02;;;;;;;9.43;4.15;;;;;;;;;;4970812;28;20057;-65
2022/04/28 04:18:28;;;;;;;9.50;4.15;;;;;;;;;;4973178;28;20040;-65
2022/04/28 04:20:53;;;;;;;6.65;3.53;;;;;;;;;;4953519;28;20407;-64
2022/04/28 04:23:18;;;;;;;8.82;3.67;;;;;;;;;;4971590;28;20436;-65
2022/04/28 04:25:44;;;;;;;7.97;3.90;;;;;;;;;;4971432;28;20421;-64
2022/04/28 04:28:09;;;;;;;6.95;3.83;;;;;;;;;;4971694;28;20455;-65
2022/04/28 04:33:19;;;;;;;6.85;4.18;;;;;;;;;;4971702;28;20055;-64
2022/04/28 04:35:45;;;;;;;8.43;3.83;;;;;;;;;;4971213;28;20429;-65
2022/04/28 04:38:10;;;;;;;8.82;3.97;;;;;;;;;;4970968;28;20495;-65
2022/04/28 04:40:35;;;;;;;6.80;3.42;;;;;;;;;;4973030;28;20440;-65
2022/04/28 04:43:01;;;;;;;5.95;3.20;;;;;;;;;;4970969;28;20507;-66
2022/04/28 04:45:27;;;;;;;6.78;3.95;;;;;;;;;;4972389;28;20481;-65
2022/04/28 04:47:52;;;;;;;6.53;3.42;;;;;;;;;;4971070;28;20452;-65
2022/04/28 04:50:17;;;;;;;6.45;3.35;;;;;;;;;;4971062;28;20429;-65
2022/04/28 04:52:44;;;;;;;6.55;3.05;;;;;;;;;;4971028;28;20460;-64
2022/04/28 04:55:09;;;;;;;7.35;3.60;;;;;;;;;;4970768;28;20421;-65
2022/04/28 04:57:35;;;;;;;7.93;3.60;;;;;;;;;;4971868;28;20364;-64
2022/04/28 05:00:02;;;;;;;7.10;3.40;;;;;;;;;;4970701;28;20432;-64
2022/04/28 05:02:27;;;;;;;8.25;4.07;;;;;;;;;;4970504;28;20445;-65
2022/04/28 05:04:53;;;;;;;6.68;4.25;;;;;;;;;;4970744;28;20348;-65
2022/04/28 05:07:18;;;;;;;7.85;4.07;;;;;;;;;;4970346;28;20337;-66
2022/04/28 05:09:43;;;;;;;8.02;3.95;;;;;;;;;;4969850;28;20341;-65
2022/04/28 05:12:09;;;;;;;7.75;4.18;;;;;;;;;;4952401;28;20112;-65
2022/04/28 05:14:34;;;;;;;6.90;4.40;;;;;;;;;;4971446;28;20037;-64
2022/04/28 05:17:01;;;;;;;8.90;4.60;;;;;;;;;;4953486;28;20132;-65
2022/04/28 05:19:27;;;;;;;6.57;3.92;;;;;;;;;;4970536;28;20361;-65
2022/04/28 05:21:54;;;;;;;8.52;5.03;;;;;;;;;;4970424;28;20326;-65
2022/04/28 05:24:20;;;;;;;7.55;4.43;;;;;;;;;;4971613;28;20356;-65
2022/04/28 05:26:45;;;;;;;7.28;4.40;;;;;;;;;;4970505;28;20309;-66
2022/04/28 05:29:10;;;;;;;7.07;4.45;;;;;;;;;;4952522;28;20496;-65
2022/04/28 05:31:36;;;;;;;7.15;4.60;;;;;;;;;;4970226;28;20352;-65
2022/04/28 05:34:01;;;;;;;7.20;4.55;;;;;;;;;;4970069;28;20432;-65
2022/04/28 05:36:28;;;;;;;9.20;4.75;;;;;;;;;;4970117;28;20479;-65
2022/04/28 05:38:54;;;;;;;8.18;5.05;;;;;;;;;;4969914;28;20425;-65
2022/04/28 05:41:20;;;;;;;9.02;4.68;;;;;;;;;;4970223;28;20332;-65
2022/04/28 05:46:29;;;;;;;7.65;4.70;;;;;;;;;;4970001;28;20591;-64
2022/04/28 05:48:54;;;;;;;6.30;4.18;;;;;;;;;;4969683;28;20368;-65
2022/04/28 05:51:19;;;;;;;7.00;4.70;;;;;;;;;;4952083;28;20375;-64
2022/04/28 05:53:45;;;;;;;7.63;4.35;;;;;;;;;;4969625;28;20460;-65
2022/04/28 05:56:10;;;;;;;11.18;4.32;;;;;;;;;;4970294;28;20383;-65
2022/04/28 05:58:36;;;;;;;7.55;4.32;;;;;;;;;;4970164;28;20367;-65
2022/04/28 06:01:01;;;;;;;6.97;4.00;;;;;;;;;;4969843;28;20037;-65
2022/04/28 06:03:26;;;;;;;8.43;4.80;;;;;;;;;;4969602;28;20425;-65
2022/04/28 06:05:52;;;;;;;8.45;3.97;;;;;;;;;;4970085;28;20492;-64
2022/04/28 06:08:17;;;;;;;9.48;4.82;;;;;;;;;;4969288;28;20320;-66
2022/04/28 06:10:43;;;;;;;6.95;4.63;;;;;;;;;;4968966;28;20073;-65
2022/04/28 06:13:08;;;;;;;7.30;3.92;;;;;;;;;;4970718;28;20511;-64
2022/04/28 06:15:33;;;;;;;9.20;4.88;;;;;;;;;;4951664;28;20504;-65
2022/04/28 06:17:59;;;;;;;8.90;4.82;;;;;;;;;;4969372;28;20510;-65
2022/04/28 06:20:24;;;;;;;7.88;4.72;;;;;;;;;;4970414;28;20471;-65
2022/04/28 06:22:50;;;;;;;8.85;4.85;;;;;;;;;;4969820;28;20029;-65
2022/04/28 06:25:15;;;;;;;6.47;3.83;;;;;;;;;;4970244;28;20344;-64
2022/04/28 06:27:41;;;;;;;9.30;4.88;;;;;;;;;;4969367;28;20466;-65
2022/04/28 06:30:08;;;;;;;7.47;4.55;;;;;;;;;;4969228;28;20033;-65
2022/04/28 06:32:33;;;;;;;11.93;4.60;;;;;;;;;;4969314;28;20376;-65
2022/04/28 06:34:59;;;;;;;9.00;4.65;;;;;;;;;;4969189;28;20387;-65
2022/04/28 06:37:24;;;;;;;7.90;4.55;;;;;;;;;;4969098;28;20052;-66
2022/04/28 06:39:50;;;;;;;8.13;4.53;;;;;;;;;;4968935;28;20061;-64
2022/04/28 06:42:15;;;;;;;8.93;4.35;;;;;;;;;;4969713;28;20046;-65
2022/04/28 06:44:41;;;;;;;9.82;4.57;;;;;;;;;;4969066;28;20419;-65
2022/04/28 06:47:06;;;;;;;11.10;4.65;;;;;;;;;;4970376;28;20428;-65
2022/04/28 06:49:34;;;;;;;8.77;4.78;;;;;;;;;;4969690;28;20115;-64
2022/04/28 06:52:00;;;;;;;8.43;4.38;;;;;;;;;;4968947;28;20341;-64
2022/04/28 06:54:27;;;;;;;8.38;4.32;;;;;;;;;;4951142;28;20337;-63
2022/04/28 06:56:52;;;;;;;7.13;4.05;;;;;;;;;;4951137;28;20341;-64
2022/04/28 06:59:19;;;;;;;8.50;4.63;;;;;;;;;;4951282;28;20464;-64
2022/04/28 07:01:44;;;;;;;7.32;4.45;;;;;;;;;;4968877;28;20376;-64
2022/04/28 07:04:10;;;;;;;7.85;4.57;;;;;;;;;;4967009;28;20399;-64
2022/04/28 07:06:36;;;;;;;7.40;4.20;;;;;;;;;;4969062;28;20437;-64
2022/04/28 07:09:01;;;;;;;8.07;4.03;;;;;;;;;;4968760;28;20542;-64
2022/04/28 07:11:26;;;;;;;6.95;3.80;;;;;;;;;;4968812;28;20057;-65
2022/04/28 07:13:52;;;;;;;5.40;3.58;;;;;;;;;;4968601;28;20422;-65
2022/04/28 07:16:17;;;;;;;7.03;4.35;;;;;;;;;;4970347;28;20048;-65
2022/04/28 07:18:43;;;;;;;6.35;4.10;;;;;;;;;;4950531;28;20432;-65
2022/04/28 07:21:08;;;;;;;7.32;4.45;;;;;;;;;;4968738;28;20326;-64
2022/04/28 07:23:34;;;;;;;6.13;3.97;;;;;;;;;;4968851;28;20321;-65
2022/04/28 07:25:59;;;;;;;7.45;4.35;;;;;;;;;;4969113;28;20112;-64
2022/04/28 07:28:25;;;;;;;7.63;4.30;;;;;;;;;;4951301;28;20222;-64
2022/04/28 07:30:50;;;;;;;7.30;3.40;;;;;;;;;;4968517;28;20436;-64
2022/04/28 07:33:16;;;;;;;8.38;4.35;;;;;;;;;;4950923;28;20103;-64
2022/04/28 07:35:42;;;;;;;8.38;4.30;;;;;;;;;;4968193;28;20384;-64
2022/04/28 07:38:08;;;;;;;7.82;4.15;;;;;;;;;;4968619;28;20052;-64
2022/04/28 07:40:35;;;;;;;6.35;4.25;;;;;;;;;;4934991;28;20609;-65
2022/04/28 07:43:03;;;;;;;5.22;2.83;;;;;;;;;;4935158;28;20432;-64
2022/04/28 07:45:29;;;;;;;6.75;3.38;;;;;;;;;;4968730;28;20337;-65
2022/04/28 07:47:56;;;;;;;5.82;3.70;;;;;;;;;;4968648;28;20341;-65
2022/04/28 07:50:22;;;;;;;8.10;3.97;;;;;;;;;;4972899;28;20352;-64
2022/04/28 07:52:47;;;;;;;6.47;3.92;;;;;;;;;;4970524;28;20396;-64
2022/04/28 07:55:13;;;;;;;6.07;3.65;;;;;;;;;;4971919;28;20037;-64
2022/04/28 07:57:38;;;;;;;6.70;3.55;;;;;;;;;;4973546;28;20512;-65
2022/04/28 08:00:07;;;;;;;5.93;3.65;;;;;;;;;;4971726;28;20372;-64
2022/04/28 08:02:33;;;;;;;7.22;3.78;;;;;;;;;;4971518;28;20033;-64
2022/04/28 08:04:58;;;;;;;7.40;4.47;;;;;;;;;;4971744;28;20075;-64
2022/04/28 08:07:24;;;;;;;5.68;3.58;;;;;;;;;;4972722;28;20491;-65
2022/04/28 08:09:50;;;;;;;6.65;3.45;;;;;;;;;;4953735;28;20448;-66
2022/04/28 08:12:16;;;;;;;7.25;3.15;;;;;;;;;;4971900;28;20451;-65
2022/04/28 08:14:41;;;;;;;5.55;3.53;;;;;;;;;;4971308;28;20348;-65
2022/04/28 08:17:06;;;;;;;4.43;3.50;;;;;;;;;;4954623;28;20037;-64
2022/04/28 08:19:33;;;;;;;7.15;3.75;;;;;;;;;;4971425;28;20381;-65
2022/04/28 08:21:59;;;;;;;6.07;3.40;;;;;;;;;;4971589;28;20454;-65
2022/04/28 08:24:24;;;;;;;6.30;3.45;;;;;;;;;;4971322;28;20433;-64
2022/04/28 08:26:51;;;;;;;5.97;3.47;;;;;;;;;;4971146;28;20525;-65
2022/04/28 08:29:17;;;;;;;5.53;3.05;;;;;;;;;;4971469;28;20057;-64
2022/04/28 08:31:45;;;;;;;7.28;3.60;;;;;;;;;;4971783;28;20528;-63
2022/04/28 08:34:11;;;;;;;4.60;3.08;;;;;;;;;;4970998;28;20418;-64
2022/04/28 08:36:37;;;;;;;5.90;3.20;;;;;;;;;;4971217;28;20320;-64
2022/04/28 08:39:03;;;;;;;6.40;3.50;;;;;;;;;;4953390;28;20497;-65
2022/04/28 08:41:36;;;;;;;6.57;3.53;;;;;;;;;;4970931;28;20056;-65
2022/04/28 08:44:03;;;;;;;5.50;3.42;;;;;;;;;;4953218;28;20444;-64
2022/04/28 08:49:14;;;;;;;5.15;3.03;;;;;;;;;;4973245;28;20056;-65
2022/04/28 08:51:40;;;;;;;5.70;2.80;;;;;;;;;;4972341;28;20409;-65
2022/04/28 08:54:06;;;;;;;5.28;3.65;;;;;;;;;;4970791;28;20460;-65
2022/04/28 08:56:31;;;;;;;6.30;3.17;;;;;;;;;;4953023;28;20522;-64
2022/04/28 08:58:57;;;;;;;4.95;2.83;;;;;;;;;;4953229;28;20317;-64
2022/04/28 09:01:24;;;;;;;5.95;3.10;;;;;;;;;;4970896;28;20436;-65
2022/04/28 09:03:49;;;;;;;6.13;3.20;;;;;;;;;;4970351;28;20365;-64
2022/04/28 09:06:23;;;;;;;6.40;3.28;;;;;;;;;;4971009;28;20789;-65
2022/04/28 09:08:49;;;;;;;5.15;2.50;;;;;;;;;;4970309;28;20132;-65
2022/04/28 09:11:22;;;;;;;5.28;3.13;;;;;;;;;;4952709;28;20132;-65
2022/04/28 09:14:15;;;;;;;4.30;3.28;;;;;;;;;;4971406;28;20338;-64
2022/04/28 09:16:43;;;;;;;5.22;2.80;;;;;;;;;;4971503;28;20380;-64
2022/04/28 09:19:29;;;;;;;4.25;2.80;;;;;;;;;;4950455;28;20076;-65
2022/04/28 09:22:14;;;;;;;4.57;2.83;;;;;;;;;;4890324;29;20473;-64
2022/04/28 09:24:44;;;;;;;4.95;2.97;;;;;;;;;;4890722;29;20545;-64
2022/04/28 09:27:10;;;;;;;4.65;2.95;;;;;;;;;;4890295;29;20118;-64
2022/04/28 09:29:39;;;;;;;5.95;3.35;;;;;;;;;;4874655;29;20391;-64
2022/04/28 09:32:12;;;;;;;7.00;3.08;;;;;;;;;;4890162;29;20482;-64
2022/04/28 09:34:49;;;;;;;4.32;2.97;;;;;;;;;;4890479;28;20422;-64
2022/04/28 09:37:21;;;;;;;4.82;2.60;;;;;;;;;;4890569;29;20408;-64
2022/04/28 09:42:40;;;;;;;3.60;2.40;;;;;;;;;;4891019;29;20408;-65
2022/04/28 09:45:09;;;;;;;4.25;2.50;;;;;;;;;;4889686;29;20339;-65
2022/04/28 09:47:36;;;;;;;3.85;2.60;;;;;;;;;;4890068;29;20577;-65
2022/04/28 09:50:11;;;;;;;4.68;2.50;;;;;;;;;;4889969;29;20518;-65
2022/04/28 09:52:37;;;;;;;4.78;3.15;;;;;;;;;;4901730;28;20542;-64
2022/04/28 09:55:04;;;;;;;4.55;2.72;;;;;;;;;;4932482;28;20520;-64
2022/04/28 09:57:30;;;;;;;4.05;2.60;;;;;;;;;;4950410;28;20356;-64
2022/04/28 09:59:57;;;;;;;5.45;2.65;;;;;;;;;;4951733;28;20048;-64
2022/04/28 10:02:24;;;;;;;3.63;2.60;;;;;;;;;;4949975;28;20379;-64
2022/04/28 10:04:52;;;;;;;6.32;2.97;;;;;;;;;;4949763;28;20377;-64
2022/04/28 10:07:18;;;;;;;4.72;2.70;;;;;;;;;;4950229;28;20488;-63
2022/04/28 10:09:49;;;;;;;7.68;2.40;;;;;;;;;;4948969;28;20461;-64
2022/04/28 10:12:17;;;;;;;3.28;2.50;;;;;;;;;;4932195;28;20322;-64
2022/04/28 10:14:43;;;;;;;4.85;2.78;;;;;;;;;;4941306;28;20434;-64
2022/04/28 10:17:12;;;;;;;3.85;2.50;;;;;;;;;;4949930;28;20181;-64
2022/04/28 10:19:42;;;;;;;7.18;2.85;;;;;;;;;;4932099;28;20424;-65
2022/04/28 10:22:11;;;;;;;5.35;2.75;;;;;;;;;;4932209;28;20499;-64
2022/04/28 10:33:02;;;;;;;3.67;2.15;;;;;;;;;;4950635;28;20519;-64
2022/04/28 10:35:40;;;;;;;4.07;2.65;;;;;;;;;;4949422;28;20353;-64
2022/04/28 10:38:14;;;;;;;4.07;2.30;;;;;;;;;;4949704;28;20420;-64
2022/04/28 10:41:01;;;;;;;5.38;2.45;;;;;;;;;;4949348;28;20480;-64
2022/04/28 10:43:32;;;;;;;3.42;2.10;;;;;;;;;;4949530;28;20671;-64
2022/04/28 10:46:24;;;;;;;4.68;2.78;;;;;;;;;;4949893;28;20496;-64
2022/04/28 10:48:54;;;;;;;3.97;2.35;;;;;;;;;;4949088;28;20438;-65
2022/04/28 10:51:26;;;;;;;3.58;1.98;;;;;;;;;;4950531;28;20411;-65
2022/04/28 10:54:09;;;;;;;4.40;2.90;;;;;;;;;;4949880;28;20030;-65
2022/04/28 10:56:40;;;;;;;4.22;2.20;;;;;;;;;;4949599;28;20346;-64
2022/04/28 10:59:25;;;;;;;4.25;2.40;;;;;;;;;;4949390;28;20356;-64
2022/04/28 11:01:50;;;;;;;3.88;2.10;;;;;;;;;;4949003;28;20376;-65
2022/04/28 11:04:16;;;;;;;4.53;2.50;;;;;;;;;;4949181;28;20392;-64
2022/04/28 11:06:51;;;;;;;4.68;2.38;;;;;;;;;;4931678;28;20065;-64
2022/04/28 11:09:30;;;;;;;4.40;2.72;;;;;;;;;;4948903;28;20054;-64
2022/04/28 11:12:06;;;;;;;5.50;2.63;;;;;;;;;;4949585;28;20041;-65
2022/04/28 11:15:00;;;;;;;3.42;2.17;;;;;;;;;;4949661;28;20381;-63
2022/04/28 11:17:28;;;;;;;3.05;2.20;;;;;;;;;;4939739;28;20453;-64
2022/04/28 11:19:54;;;;;;;4.35;2.72;;;;;;;;;;4949055;28;20548;-65
2022/04/28 11:22:20;;;;;;;3.13;1.90;;;;;;;;;;4949003;28;20034;-64
2022/04/28 11:24:47;;;;;;;3.97;2.45;;;;;;;;;;4951465;28;20373;-65
2022/04/28 11:27:25;;;;;;;2.78;1.85;;;;;;;;;;4935174;28;20496;-64
2022/04/28 11:29:51;;;;;;;3.60;2.25;;;;;;;;;;4952777;28;20104;-64
2022/04/28 11:32:17;;;;;;;3.40;2.30;;;;;;;;;;4952835;28;20319;-65
2022/04/28 11:34:44;;;;;;;4.07;2.08;;;;;;;;;;4952462;28;20414;-64
2022/04/28 11:37:24;;;;;;;6.72;2.28;;;;;;;;;;4951792;28;20448;-64
2022/04/28 11:39:55;;;;;;;3.38;1.98;;;;;;;;;;4952662;28;20038;-65
2022/04/28 11:42:25;;;;;;;5.30;2.10;;;;;;;;;;4954692;28;20092;-64
2022/04/28 11:44:59;;;;;;;2.92;1.75;;;;;;;;;;4935794;28;20034;-65
2022/04/28 11:47:26;;;;;;;3.25;2.10;;;;;;;;;;4952852;28;20112;-65
2022/04/28 11:50:02;;;;;;;3.00;1.98;;;;;;;;;;4953330;28;20031;-64
2022/04/28 11:52:34;;;;;;;3.38;1.90;;;;;;;;;;4952983;28;20429;-64
2022/04/28 11:55:09;;;;;;;3.53;2.15;;;;;;;;;;4952334;28;20436;-65
2022/04/28 11:57:41;;;;;;;2.10;1.75;;;;;;;;;;4950653;28;20026;-64
2022/04/28 12:00:08;;;;;;;3.88;2.15;;;;;;;;;;4952461;28;20022;-64
2022/04/28 12:02:35;;;;;;;3.30;2.33;;;;;;;;;;4952145;28;20029;-64
2022/04/28 12:05:05;;;;;;;3.25;2.10;;;;;;;;;;4952028;28;20050;-64
2022/04/28 12:07:33;;;;;;;3.50;2.00;;;;;;;;;;4952125;28;20400;-64
2022/04/28 12:15:28;;;;;;;3.55;2.17;;;;;;;;;;4937293;28;20211;-63
2022/04/28 12:20:55;;;;;;;2.90;2.20;;;;;;;;;;4951531;28;20060;-64
2022/04/28 12:23:28;;;;;;;3.40;2.13;;;;;;;;;;4950952;28;20341;-64
2022/04/28 12:26:01;;;;;;;2.97;1.85;;;;;;;;;;4951866;28;20345;-64
2022/04/28 12:28:41;;;;;;;2.60;1.75;;;;;;;;;;4951668;28;20488;-64
2022/04/28 12:31:09;;;;;;;4.47;2.08;;;;;;;;;;4936315;28;20061;-63
2022/04/28 12:33:37;;;;;;;4.93;2.15;;;;;;;;;;4951450;28;20455;-64
2022/04/28 12:36:05;;;;;;;3.72;1.98;;;;;;;;;;4952722;28;20052;-64
2022/04/28 12:38:33;;;;;;;2.58;1.88;;;;;;;;;;4952409;28;20656;-64
2022/04/28 12:41:11;;;;;;;3.00;1.98;;;;;;;;;;4951334;28;20488;-64
2022/04/28 12:43:39;;;;;;;2.53;1.73;;;;;;;;;;4953014;28;20372;-64
2022/04/28 12:46:09;;;;;;;3.45;2.08;;;;;;;;;;4951021;28;20762;-64
2022/04/28 12:48:35;;;;;;;;;;;;;;;;;;4951881;28;20541;-64
2022/04/28 12:51:16;;;;;;;2.90;2.00;;;;;;;;;;4951479;28;20299;-64
2022/04/28 12:53:44;;;;;;;4.45;2.75;;;;;;;;;;4951549;28;20096;-64
2022/04/28 12:56:16;;;;;;;4.28;2.08;;;;;;;;;;4951352;28;20354;-63
2022/04/28 12:58:47;;;;;;;3.30;1.85;;;;;;;;;;4951019;28;20049;-64
2022/04/28 13:01:18;;;;;;;2.83;1.90;;;;;;;;;;4951685;28;20393;-64
2022/04/28 13:04:12;;;;;;;3.33;2.00;;;;;;;;;;4951235;28;20412;-64
2022/04/28 13:06:39;;;;;;;2.55;1.83;;;;;;;;;;4950385;28;20385;-64
2022/04/28 13:09:09;;;;;;;3.75;1.73;;;;;;;;;;4951799;28;20515;-63
2022/04/28 13:11:39;;;;;;;4.00;2.20;;;;;;;;;;4950795;28;20314;-64
2022/04/28 13:14:06;;;;;;;3.92;2.35;;;;;;;;;;4950596;28;20449;-64
2022/04/28 13:16:32;;;;;;;3.67;2.28;;;;;;;;;;4950987;28;20161;-64
2022/04/28 13:18:57;;;;;;;4.75;2.47;;;;;;;;;;4951115;28;20429;-64
2022/04/28 13:21:24;;;;;;;8.48;1.92;;;;;;;;;;4950678;28;20402;-64
2022/04/28 13:23:50;;;;;;;3.63;2.08;;;;;;;;;;4951198;28;20325;-64
2022/04/28 13:26:17;;;;;;;3.22;2.20;;;;;;;;;;4951428;28;20353;-64
2022/04/28 13:28:43;;;;;;;2.88;1.70;;;;;;;;;;4950987;28;20048;-64
2022/04/28 13:31:08;;;;;;;3.40;2.22;;;;;;;;;;4950541;28;20429;-64
2022/04/28 13:33:34;;;;;;;2.85;1.95;;;;;;;;;;4950437;28;20643;-64
2022/04/28 13:36:03;;;;;;;3.00;1.83;;;;;;;;;;4950269;28;20438;-63
2022/04/28 13:38:28;;;;;;;3.17;1.90;;;;;;;;;;4951305;28;20120;-64
2022/04/28 13:40:54;;;;;;;2.58;1.80;;;;;;;;;;4951109;28;20440;-63
2022/04/28 13:43:19;;;;;;;2.55;1.88;;;;;;;;;;4950637;28;20026;-63
2022/04/28 13:45:44;;;;;;;3.28;1.60;;;;;;;;;;4950574;28;20446;-64
2022/04/28 13:48:10;;;;;;;4.55;2.03;;;;;;;;;;4932715;28;20030;-64
2022/04/28 13:50:36;;;;;;;4.22;2.40;;;;;;;;;;4949957;28;20478;-64
2022/04/28 13:53:03;;;;;;;2.85;1.80;;;;;;;;;;4952103;28;20337;-65
2022/04/28 13:55:28;;;;;;;2.63;1.92;;;;;;;;;;4949799;28;20030;-64
2022/04/28 13:57:53;;;;;;;2.60;1.70;;;;;;;;;;4950287;28;20441;-65
2022/04/28 14:00:19;;;;;;;3.80;2.55;;;;;;;;;;4949881;28;20345;-65
2022/04/28 14:02:44;;;;;;;4.82;2.20;;;;;;;;;;4950590;28;20088;-64
2022/04/28 14:05:11;;;;;;;3.38;1.80;;;;;;;;;;4950079;28;20388;-64
2022/04/28 14:07:37;;;;;;;2.95;1.98;;;;;;;;;;4950288;28;20384;-64
2022/04/28 14:10:05;;;;;;;3.83;2.00;;;;;;;;;;4949877;28;20343;-65
2022/04/28 14:12:31;;;;;;;3.33;1.97;;;;;;;;;;4950449;28;20047;-64
2022/04/28 14:14:56;;;;;;;2.83;2.00;;;;;;;;;;4950048;28;20030;-64
2022/04/28 14:17:21;;;;;;;3.28;1.98;;;;;;;;;;4950065;28;20132;-64
2022/04/28 14:19:46;;;;;;;4.18;1.90;;;;;;;;;;4949657;28;20451;-64
2022/04/28 14:22:17;;;;;;;2.67;2.08;;;;;;;;;;4949651;28;20433;-64
2022/04/28 14:24:44;;;;;;;2.28;1.83;;;;;;;;;;4949485;28;20431;-64
2022/04/28 14:27:09;;;;;;;3.10;1.92;;;;;;;;;;4949604;28;20426;-63
2022/04/28 14:29:35;;;;;;;2.80;2.03;;;;;;;;;;4949603;28;20464;-64
2022/04/28 14:32:01;;;;;;;3.30;2.00;;;;;;;;;;4949777;28;20459;-64
2022/04/28 14:34:26;;;;;;;3.72;1.98;;;;;;;;;;4949782;28;20475;-64
2022/04/28 14:36:52;;;;;;;2.53;1.85;;;;;;;;;;4949343;28;20372;-64
2022/04/28 14:39:17;;;;;;;1.98;1.30;;;;;;;;;;4949654;28;20030;-64
2022/04/28 14:41:42;;;;;;;2.42;1.85;;;;;;;;;;4949650;28;20345;-64
2022/04/28 14:44:08;;;;;;;3.55;1.80;;;;;;;;;;4951387;28;20500;-63
2022/04/28 14:46:33;;;;;;;2.85;1.95;;;;;;;;;;4931764;28;20302;-64
2022/04/28 14:54:27;;;;;;;3.03;1.80;;;;;;;;;;4949299;28;20461;-64
2022/04/28 14:56:52;;;;;;;3.33;1.67;;;;;;;;;;4949349;28;20357;-63
2022/04/28 14:59:17;;;;;;;3.33;1.73;;;;;;;;;;4950595;28;20434;-64
2022/04/28 15:01:43;;;;;;;5.30;1.77;;;;;;;;;;4953101;28;20429;-63
2022/04/28 15:04:08;;;;;;;3.05;1.67;;;;;;;;;;4953261;28;20048;-64
2022/04/28 15:06:33;;;;;;;3.17;1.80;;;;;;;;;;4953412;28;20440;-64
2022/04/28 15:08:59;;;;;;;2.90;1.75;;;;;;;;;;4953941;28;20388;-64
2022/04/28 15:11:25;;;;;;;3.05;1.73;;;;;;;;;;4953288;28;20302;-64
2022/04/28 15:13:51;;;;;;;2.42;1.77;;;;;;;;;;4953439;28;20077;-65
2022/04/28 15:16:16;;;;;;;2.50;1.42;;;;;;;;;;4953161;28;20103;-64
2022/04/28 15:18:41;;;;;;;2.67;2.10;;;;;;;;;;4953006;28;20427;-64
2022/04/28 15:21:07;;;;;;;2.53;1.60;;;;;;;;;;4953610;28;20049;-64
2022/04/28 15:23:32;;;;;;;3.55;2.22;;;;;;;;;;4952786;28;20361;-63
2022/04/28 15:25:57;;;;;;;2.85;1.90;;;;;;;;;;4953150;28;20422;-64
2022/04/28 15:28:23;;;;;;;3.47;2.30;;;;;;;;;;4953570;28;20441;-64
2022/04/28 15:30:49;;;;;;;4.88;1.83;;;;;;;;;;4952872;28;20480;-64